sensor_id;sensor_type;location;lat;lon;timestamp;temperature;humidity
56184;DHT22;42086;53.170;6.980;2022-10-16T08:27:36;14.50;99.90
56184;DHT22;42086;53.170;6.980;2022-10-16T08:30:02;14.50;99.90
56184;DHT22;42086;53.170;6.980;2022-10-16T08:32:28;14.60;99.90
56184;DHT22;42086;53.170;6.980;2022-10-16T08:34:54;14.80;99.90
56184;DHT22;42086;53.170;6.980;2022-10-16T08:37:19;15.00;99.90
56184;DHT22;42086;53.170;6.980;2022-10-16T08:39:45;15.00;99.90
56184;DHT22;42086;53.170;6.980;2022-10-16T08:42:22;14.90;99.90
56184;DHT22;42086;53.170;6.980;2022-10-16T08:47:54;15.10;99.90
56184;DHT22;42086;53.170;6.980;2022-10-16T08:50:27;15.10;99.90
56184;DHT22;42086;53.170;6.980;2022-10-16T08:52:55;15.20;99.90
56184;DHT22;42086;53.170;6.980;2022-10-16T08:55:45;15.30;99.90
56184;DHT22;42086;53.170;6.980;2022-10-16T08:58:20;15.40;99.90
56184;DHT22;42086;53.170;6.980;2022-10-16T09:00:58;15.60;99.90
56184;DHT22;42086;53.170;6.980;2022-10-16T09:08:40;15.50;99.90
56184;DHT22;42086;53.170;6.980;2022-10-16T09:16:33;15.60;99.90
56184;DHT22;42086;53.170;6.980;2022-10-16T09:19:27;15.70;99.90
56184;DHT22;42086;53.170;6.980;2022-10-16T09:21:54;15.70;99.90
56184;DHT22;42086;53.170;6.980;2022-10-16T09:24:25;16.10;99.90
56184;DHT22;42086;53.170;6.980;2022-10-16T09:26:51;16.10;99.90
56184;DHT22;42086;53.170;6.980;2022-10-16T09:29:19;16.10;99.90
56184;DHT22;42086;53.170;6.980;2022-10-16T09:31:46;16.20;99.90
56184;DHT22;42086;53.170;6.980;2022-10-16T09:34:30;16.30;99.90
56184;DHT22;42086;53.170;6.980;2022-10-16T09:36:59;16.40;99.90
56184;DHT22;42086;53.170;6.980;2022-10-16T09:39:26;16.50;99.90
56184;DHT22;42086;53.170;6.980;2022-10-16T09:41:52;16.60;99.90
56184;DHT22;42086;53.170;6.980;2022-10-16T09:46:44;16.70;99.90
56184;DHT22;42086;53.170;6.980;2022-10-16T09:49:26;16.80;99.90
56184;DHT22;42086;53.170;6.980;2022-10-16T09:52:11;16.80;99.90
56184;DHT22;42086;53.170;6.980;2022-10-16T09:54:37;16.80;99.90
56184;DHT22;42086;53.170;6.980;2022-10-16T09:57:13;16.90;99.90
56184;DHT22;42086;53.170;6.980;2022-10-16T09:59:47;17.00;99.90
56184;DHT22;42086;53.170;6.980;2022-10-16T10:02:15;17.00;99.90
56184;DHT22;42086;53.170;6.980;2022-10-16T10:04:50;16.80;99.90
56184;DHT22;42086;53.170;6.980;2022-10-16T10:07:19;16.80;99.90
56184;DHT22;42086;53.170;6.980;2022-10-16T10:09:46;16.80;99.90
56184;DHT22;42086;53.170;6.980;2022-10-16T10:12:24;16.90;99.90
56184;DHT22;42086;53.170;6.980;2022-10-16T10:14:52;17.10;99.90
56184;DHT22;42086;53.170;6.980;2022-10-16T10:17:28;17.30;99.90
56184;DHT22;42086;53.170;6.980;2022-10-16T10:19:58;17.10;99.90
56184;DHT22;42086;53.170;6.980;2022-10-16T10:30:56;17.10;99.90
56184;DHT22;42086;53.170;6.980;2022-10-16T10:39:04;17.80;99.90
56184;DHT22;42086;53.170;6.980;2022-10-16T11:05:44;17.90;99.90
56184;DHT22;42086;53.170;6.980;2022-10-16T11:13:33;18.10;99.90
56184;DHT22;42086;53.170;6.980;2022-10-16T11:16:26;18.10;99.90
56184;DHT22;42086;53.170;6.980;2022-10-16T11:24:55;18.30;99.90
56184;DHT22;42086;53.170;6.980;2022-10-16T11:27:39;18.20;99.90
56184;DHT22;42086;53.170;6.980;2022-10-16T11:30:20;18.10;99.90
56184;DHT22;42086;53.170;6.980;2022-10-16T11:35:53;18.50;99.90
56184;DHT22;42086;53.170;6.980;2022-10-16T11:49:53;19.30;99.90
56184;DHT22;42086;53.170;6.980;2022-10-16T11:53:16;19.50;99.90
56184;DHT22;42086;53.170;6.980;2022-10-16T11:58:08;19.10;99.90
56184;DHT22;42086;53.170;6.980;2022-10-16T12:08:40;19.80;99.90
56184;DHT22;42086;53.170;6.980;2022-10-16T12:11:22;19.70;99.90
56184;DHT22;42086;53.170;6.980;2022-10-16T12:13:49;19.70;99.90
56184;DHT22;42086;53.170;6.980;2022-10-16T12:18:43;19.60;99.90
56184;DHT22;42086;53.170;6.980;2022-10-16T12:21:10;20.10;99.90
56184;DHT22;42086;53.170;6.980;2022-10-16T12:23:50;20.50;99.90
56184;DHT22;42086;53.170;6.980;2022-10-16T12:26:31;21.10;99.90
56184;DHT22;42086;53.170;6.980;2022-10-16T12:31:48;21.50;99.90
56184;DHT22;42086;53.170;6.980;2022-10-16T12:34:22;21.30;99.90
56184;DHT22;42086;53.170;6.980;2022-10-16T12:36:49;21.40;99.90
56184;DHT22;42086;53.170;6.980;2022-10-16T12:39:23;21.50;99.90
56184;DHT22;42086;53.170;6.980;2022-10-16T12:42:04;21.60;99.90
56184;DHT22;42086;53.170;6.980;2022-10-16T12:44:35;22.00;99.90
56184;DHT22;42086;53.170;6.980;2022-10-16T12:47:02;22.60;99.90
56184;DHT22;42086;53.170;6.980;2022-10-16T12:51:54;21.80;99.90
56184;DHT22;42086;53.170;6.980;2022-10-16T12:54:30;21.00;99.90
56184;DHT22;42086;53.170;6.980;2022-10-16T13:10:26;21.50;99.90
56184;DHT22;42086;53.170;6.980;2022-10-16T13:18:29;22.40;99.80
56184;DHT22;42086;53.170;6.980;2022-10-16T13:23:38;23.90;97.50
56184;DHT22;42086;53.170;6.980;2022-10-16T13:28:40;23.70;94.10
56184;DHT22;42086;53.170;6.980;2022-10-16T13:31:18;23.50;96.30
56184;DHT22;42086;53.170;6.980;2022-10-16T13:33:51;24.00;93.00
56184;DHT22;42086;53.170;6.980;2022-10-16T13:36:29;24.00;91.10
56184;DHT22;42086;53.170;6.980;2022-10-16T13:39:14;24.30;91.50
56184;DHT22;42086;53.170;6.980;2022-10-16T13:41:41;24.10;87.50
56184;DHT22;42086;53.170;6.980;2022-10-16T13:44:19;23.50;88.30
56184;DHT22;42086;53.170;6.980;2022-10-16T13:46:45;23.30;88.00
56184;DHT22;42086;53.170;6.980;2022-10-16T13:49:14;23.30;87.10
56184;DHT22;42086;53.170;6.980;2022-10-16T13:51:40;23.60;87.10
56184;DHT22;42086;53.170;6.980;2022-10-16T13:54:09;23.20;83.80
56184;DHT22;42086;53.170;6.980;2022-10-16T13:56:39;23.50;83.70
56184;DHT22;42086;53.170;6.980;2022-10-16T13:59:22;23.50;86.10
56184;DHT22;42086;53.170;6.980;2022-10-16T14:01:48;23.30;85.90
56184;DHT22;42086;53.170;6.980;2022-10-16T14:04:15;23.50;85.70
56184;DHT22;42086;53.170;6.980;2022-10-16T14:06:46;23.60;86.40
56184;DHT22;42086;53.170;6.980;2022-10-16T14:09:28;23.90;83.10
56184;DHT22;42086;53.170;6.980;2022-10-16T14:12:03;23.90;81.10
56184;DHT22;42086;53.170;6.980;2022-10-16T14:14:55;23.70;81.50
56184;DHT22;42086;53.170;6.980;2022-10-16T14:17:34;24.10;76.20
56184;DHT22;42086;53.170;6.980;2022-10-16T14:20:04;23.20;76.80
56184;DHT22;42086;53.170;6.980;2022-10-16T14:22:34;23.30;81.40
56184;DHT22;42086;53.170;6.980;2022-10-16T14:25:02;22.90;78.30
56184;DHT22;42086;53.170;6.980;2022-10-16T14:27:36;22.70;78.20
56184;DHT22;42086;53.170;6.980;2022-10-16T14:32:37;22.60;75.80
56184;DHT22;42086;53.170;6.980;2022-10-16T14:35:23;22.40;75.60
56184;DHT22;42086;53.170;6.980;2022-10-16T14:37:52;22.10;75.10
56184;DHT22;42086;53.170;6.980;2022-10-16T14:40:18;21.70;78.80
56184;DHT22;42086;53.170;6.980;2022-10-16T14:42:44;21.30;80.10
56184;DHT22;42086;53.170;6.980;2022-10-16T14:45:11;21.00;80.70
56184;DHT22;42086;53.170;6.980;2022-10-16T14:47:47;20.60;84.20
56184;DHT22;42086;53.170;6.980;2022-10-16T14:50:14;20.10;88.10
56184;DHT22;42086;53.170;6.980;2022-10-16T14:52:40;19.90;90.00
56184;DHT22;42086;53.170;6.980;2022-10-16T14:55:07;19.50;91.30
56184;DHT22;42086;53.170;6.980;2022-10-16T14:57:36;19.20;93.20
56184;DHT22;42086;53.170;6.980;2022-10-16T15:00:08;19.10;95.50
56184;DHT22;42086;53.170;6.980;2022-10-16T15:02:35;18.80;96.40
56184;DHT22;42086;53.170;6.980;2022-10-16T15:05:16;18.70;98.50
56184;DHT22;42086;53.170;6.980;2022-10-16T15:07:42;18.50;99.90
56184;DHT22;42086;53.170;6.980;2022-10-16T15:10:09;18.20;99.90
56184;DHT22;42086;53.170;6.980;2022-10-16T15:12:35;18.00;99.90
56184;DHT22;42086;53.170;6.980;2022-10-16T15:15:00;18.00;99.90
56184;DHT22;42086;53.170;6.980;2022-10-16T15:17:26;17.90;99.90
56184;DHT22;42086;53.170;6.980;2022-10-16T15:19:55;17.80;99.90
56184;DHT22;42086;53.170;6.980;2022-10-16T15:22:21;17.60;99.90
56184;DHT22;42086;53.170;6.980;2022-10-16T15:24:48;17.50;99.90
56184;DHT22;42086;53.170;6.980;2022-10-16T15:27:14;17.40;99.90
56184;DHT22;42086;53.170;6.980;2022-10-16T15:29:40;17.20;99.90
56184;DHT22;42086;53.170;6.980;2022-10-16T15:32:05;17.10;99.90
56184;DHT22;42086;53.170;6.980;2022-10-16T15:34:31;17.00;99.90
56184;DHT22;42086;53.170;6.980;2022-10-16T15:36:57;16.90;99.90
56184;DHT22;42086;53.170;6.980;2022-10-16T15:39:23;16.80;99.90
56184;DHT22;42086;53.170;6.980;2022-10-16T15:41:49;16.80;99.90
56184;DHT22;42086;53.170;6.980;2022-10-16T15:44:20;16.80;99.90
56184;DHT22;42086;53.170;6.980;2022-10-16T15:46:46;16.80;99.90
56184;DHT22;42086;53.170;6.980;2022-10-16T15:49:12;16.70;99.90
56184;DHT22;42086;53.170;6.980;2022-10-16T15:51:40;16.60;99.90
56184;DHT22;42086;53.170;6.980;2022-10-16T15:54:06;16.50;99.90
56184;DHT22;42086;53.170;6.980;2022-10-16T15:56:31;16.40;99.90
56184;DHT22;42086;53.170;6.980;2022-10-16T15:58:59;16.30;99.90
56184;DHT22;42086;53.170;6.980;2022-10-16T16:01:26;16.20;99.90
56184;DHT22;42086;53.170;6.980;2022-10-16T16:03:53;16.10;99.90
56184;DHT22;42086;53.170;6.980;2022-10-16T16:06:19;16.00;99.90
56184;DHT22;42086;53.170;6.980;2022-10-16T16:08:45;16.00;99.90
56184;DHT22;42086;53.170;6.980;2022-10-16T16:11:13;15.90;99.90
56184;DHT22;42086;53.170;6.980;2022-10-16T16:13:39;15.70;99.90
56184;DHT22;42086;53.170;6.980;2022-10-16T16:16:14;15.50;99.90
56184;DHT22;42086;53.170;6.980;2022-10-16T16:18:40;15.30;99.90
56184;DHT22;42086;53.170;6.980;2022-10-16T16:21:06;15.20;99.90
56184;DHT22;42086;53.170;6.980;2022-10-16T16:23:32;15.10;99.90
56184;DHT22;42086;53.170;6.980;2022-10-16T16:28:31;14.80;99.90
56184;DHT22;42086;53.170;6.980;2022-10-16T16:30:57;14.80;99.90
56184;DHT22;42086;53.170;6.980;2022-10-16T16:33:23;14.70;99.90
56184;DHT22;42086;53.170;6.980;2022-10-16T16:35:49;14.50;99.90
56184;DHT22;42086;53.170;6.980;2022-10-16T16:38:15;14.30;99.90
56184;DHT22;42086;53.170;6.980;2022-10-16T16:40:41;14.30;99.90
56184;DHT22;42086;53.170;6.980;2022-10-16T16:43:07;14.20;99.90
56184;DHT22;42086;53.170;6.980;2022-10-16T16:45:35;14.10;99.90
56184;DHT22;42086;53.170;6.980;2022-10-16T16:48:01;14.00;99.90
56184;DHT22;42086;53.170;6.980;2022-10-16T16:50:27;13.90;99.90
56184;DHT22;42086;53.170;6.980;2022-10-16T16:52:52;13.80;99.90
56184;DHT22;42086;53.170;6.980;2022-10-16T16:55:18;13.70;99.90
56184;DHT22;42086;53.170;6.980;2022-10-16T16:57:44;13.50;99.90
56184;DHT22;42086;53.170;6.980;2022-10-16T17:00:10;13.30;99.90
56184;DHT22;42086;53.170;6.980;2022-10-16T17:02:35;13.20;99.90
56184;DHT22;42086;53.170;6.980;2022-10-16T17:05:01;13.10;99.90
56184;DHT22;42086;53.170;6.980;2022-10-16T17:07:31;13.00;99.90
56184;DHT22;42086;53.170;6.980;2022-10-16T17:09:58;13.00;99.90
56184;DHT22;42086;53.170;6.980;2022-10-16T17:12:23;12.90;99.90
56184;DHT22;42086;53.170;6.980;2022-10-16T17:14:50;12.90;99.90
56184;DHT22;42086;53.170;6.980;2022-10-16T17:17:16;12.90;99.90
56184;DHT22;42086;53.170;6.980;2022-10-16T17:19:42;12.80;99.90
56184;DHT22;42086;53.170;6.980;2022-10-16T17:22:07;12.70;99.90
56184;DHT22;42086;53.170;6.980;2022-10-16T17:24:33;12.60;99.90
56184;DHT22;42086;53.170;6.980;2022-10-16T17:26:59;12.60;99.90
56184;DHT22;42086;53.170;6.980;2022-10-16T17:29:24;12.50;99.90
56184;DHT22;42086;53.170;6.980;2022-10-16T17:31:50;12.40;99.90
56184;DHT22;42086;53.170;6.980;2022-10-16T17:34:17;12.30;99.90
56184;DHT22;42086;53.170;6.980;2022-10-16T17:36:42;12.20;99.90
56184;DHT22;42086;53.170;6.980;2022-10-16T17:39:12;12.20;99.90
56184;DHT22;42086;53.170;6.980;2022-10-16T17:41:39;12.20;99.90
56184;DHT22;42086;53.170;6.980;2022-10-16T17:44:06;12.20;99.90
56184;DHT22;42086;53.170;6.980;2022-10-16T17:46:32;12.10;99.90
56184;DHT22;42086;53.170;6.980;2022-10-16T17:48:58;12.10;99.90
56184;DHT22;42086;53.170;6.980;2022-10-16T17:51:28;12.10;99.90
56184;DHT22;42086;53.170;6.980;2022-10-16T17:53:58;12.00;99.90
56184;DHT22;42086;53.170;6.980;2022-10-16T17:56:24;12.00;99.90
56184;DHT22;42086;53.170;6.980;2022-10-16T17:58:52;12.00;99.90
56184;DHT22;42086;53.170;6.980;2022-10-16T18:01:23;12.00;99.90
56184;DHT22;42086;53.170;6.980;2022-10-16T18:03:55;12.00;99.90
56184;DHT22;42086;53.170;6.980;2022-10-16T18:06:21;11.90;99.90
56184;DHT22;42086;53.170;6.980;2022-10-16T18:08:47;11.80;99.90
56184;DHT22;42086;53.170;6.980;2022-10-16T18:11:12;11.70;99.90
56184;DHT22;42086;53.170;6.980;2022-10-16T18:13:39;11.70;99.90
56184;DHT22;42086;53.170;6.980;2022-10-16T18:16:07;11.70;99.90
56184;DHT22;42086;53.170;6.980;2022-10-16T18:18:36;11.70;99.90
56184;DHT22;42086;53.170;6.980;2022-10-16T18:21:05;11.80;99.90
56184;DHT22;42086;53.170;6.980;2022-10-16T18:23:33;11.80;99.90
56184;DHT22;42086;53.170;6.980;2022-10-16T18:25:59;11.70;99.90
56184;DHT22;42086;53.170;6.980;2022-10-16T18:28:25;11.80;99.90
56184;DHT22;42086;53.170;6.980;2022-10-16T18:30:58;11.80;99.90
56184;DHT22;42086;53.170;6.980;2022-10-16T18:33:25;11.80;99.90
56184;DHT22;42086;53.170;6.980;2022-10-16T18:35:52;11.80;99.90
56184;DHT22;42086;53.170;6.980;2022-10-16T18:38:18;11.80;99.90
56184;DHT22;42086;53.170;6.980;2022-10-16T18:40:45;11.80;99.90
56184;DHT22;42086;53.170;6.980;2022-10-16T18:43:11;11.70;99.90
56184;DHT22;42086;53.170;6.980;2022-10-16T18:45:39;11.70;99.90
56184;DHT22;42086;53.170;6.980;2022-10-16T18:48:05;11.70;99.90
56184;DHT22;42086;53.170;6.980;2022-10-16T18:50:32;11.80;99.90
56184;DHT22;42086;53.170;6.980;2022-10-16T18:52:58;11.80;99.90
56184;DHT22;42086;53.170;6.980;2022-10-16T18:55:24;11.80;99.90
56184;DHT22;42086;53.170;6.980;2022-10-16T18:57:50;11.80;99.90
56184;DHT22;42086;53.170;6.980;2022-10-16T19:00:16;11.80;99.90
56184;DHT22;42086;53.170;6.980;2022-10-16T19:02:41;11.80;99.90
56184;DHT22;42086;53.170;6.980;2022-10-16T19:05:07;11.90;99.90
56184;DHT22;42086;53.170;6.980;2022-10-16T19:07:35;11.90;99.90
56184;DHT22;42086;53.170;6.980;2022-10-16T19:10:01;11.90;99.90
56184;DHT22;42086;53.170;6.980;2022-10-16T19:12:26;11.90;99.90
56184;DHT22;42086;53.170;6.980;2022-10-16T19:14:52;12.00;99.90
56184;DHT22;42086;53.170;6.980;2022-10-16T19:17:18;11.90;99.90
56184;DHT22;42086;53.170;6.980;2022-10-16T19:19:43;11.90;99.90
56184;DHT22;42086;53.170;6.980;2022-10-16T19:22:09;11.80;99.90
56184;DHT22;42086;53.170;6.980;2022-10-16T19:24:56;11.80;99.90
56184;DHT22;42086;53.170;6.980;2022-10-16T19:27:22;11.80;99.90
56184;DHT22;42086;53.170;6.980;2022-10-16T19:29:47;11.80;99.90
56184;DHT22;42086;53.170;6.980;2022-10-16T19:32:13;11.80;99.90
56184;DHT22;42086;53.170;6.980;2022-10-16T19:34:39;11.80;99.90
56184;DHT22;42086;53.170;6.980;2022-10-16T19:37:05;11.80;99.90
56184;DHT22;42086;53.170;6.980;2022-10-16T19:39:30;11.80;99.90
56184;DHT22;42086;53.170;6.980;2022-10-16T19:41:56;11.90;99.90
56184;DHT22;42086;53.170;6.980;2022-10-16T19:44:22;11.90;99.90
56184;DHT22;42086;53.170;6.980;2022-10-16T19:46:48;11.80;99.90
56184;DHT22;42086;53.170;6.980;2022-10-16T19:49:16;11.90;99.90
56184;DHT22;42086;53.170;6.980;2022-10-16T19:51:47;11.80;99.90
56184;DHT22;42086;53.170;6.980;2022-10-16T19:54:14;11.80;99.90
56184;DHT22;42086;53.170;6.980;2022-10-16T19:56:41;11.90;99.90
56184;DHT22;42086;53.170;6.980;2022-10-16T19:59:08;11.90;99.90
56184;DHT22;42086;53.170;6.980;2022-10-16T20:01:36;11.90;99.90
56184;DHT22;42086;53.170;6.980;2022-10-16T20:04:02;11.80;99.90
56184;DHT22;42086;53.170;6.980;2022-10-16T20:06:28;11.80;99.90
56184;DHT22;42086;53.170;6.980;2022-10-16T20:08:54;11.80;99.90
56184;DHT22;42086;53.170;6.980;2022-10-16T20:11:24;11.80;99.90
56184;DHT22;42086;53.170;6.980;2022-10-16T20:13:51;11.90;99.90
56184;DHT22;42086;53.170;6.980;2022-10-16T20:16:17;11.90;99.90
56184;DHT22;42086;53.170;6.980;2022-10-16T20:18:45;12.00;99.90
56184;DHT22;42086;53.170;6.980;2022-10-16T20:21:17;12.00;99.90
56184;DHT22;42086;53.170;6.980;2022-10-16T20:23:43;12.00;99.90
56184;DHT22;42086;53.170;6.980;2022-10-16T20:26:10;12.00;99.90
56184;DHT22;42086;53.170;6.980;2022-10-16T20:28:38;11.90;99.90
56184;DHT22;42086;53.170;6.980;2022-10-16T20:31:13;11.80;99.90
56184;DHT22;42086;53.170;6.980;2022-10-16T20:33:41;11.90;99.90
56184;DHT22;42086;53.170;6.980;2022-10-16T20:36:11;11.90;99.90
56184;DHT22;42086;53.170;6.980;2022-10-16T20:38:37;11.90;99.90
56184;DHT22;42086;53.170;6.980;2022-10-16T20:41:04;11.80;99.90
56184;DHT22;42086;53.170;6.980;2022-10-16T20:43:30;11.90;99.90
56184;DHT22;42086;53.170;6.980;2022-10-16T20:46:04;11.90;99.90
56184;DHT22;42086;53.170;6.980;2022-10-16T20:48:30;11.90;99.90
56184;DHT22;42086;53.170;6.980;2022-10-16T20:50:56;11.90;99.90
56184;DHT22;42086;53.170;6.980;2022-10-16T20:53:24;11.90;99.90
56184;DHT22;42086;53.170;6.980;2022-10-16T20:55:50;11.90;99.90
56184;DHT22;42086;53.170;6.980;2022-10-16T20:58:16;12.00;99.90
56184;DHT22;42086;53.170;6.980;2022-10-16T21:00:43;12.00;99.90
56184;DHT22;42086;53.170;6.980;2022-10-16T21:03:10;12.10;99.90
56184;DHT22;42086;53.170;6.980;2022-10-16T21:05:40;12.10;99.90
56184;DHT22;42086;53.170;6.980;2022-10-16T21:08:06;12.20;99.90
56184;DHT22;42086;53.170;6.980;2022-10-16T21:10:32;12.10;99.90
56184;DHT22;42086;53.170;6.980;2022-10-16T21:12:58;12.10;99.90
56184;DHT22;42086;53.170;6.980;2022-10-16T21:15:23;12.20;99.90
56184;DHT22;42086;53.170;6.980;2022-10-16T21:17:49;12.20;99.90
56184;DHT22;42086;53.170;6.980;2022-10-16T21:20:15;12.20;99.90
56184;DHT22;42086;53.170;6.980;2022-10-16T21:22:41;12.30;99.90
56184;DHT22;42086;53.170;6.980;2022-10-16T21:25:07;12.30;99.90
56184;DHT22;42086;53.170;6.980;2022-10-16T21:27:37;12.30;99.90
56184;DHT22;42086;53.170;6.980;2022-10-16T21:30:06;12.30;99.90
56184;DHT22;42086;53.170;6.980;2022-10-16T21:32:37;12.40;99.90
56184;DHT22;42086;53.170;6.980;2022-10-16T21:35:04;12.40;99.90
56184;DHT22;42086;53.170;6.980;2022-10-16T21:37:30;12.50;99.90
56184;DHT22;42086;53.170;6.980;2022-10-16T21:39:56;12.50;99.90
56184;DHT22;42086;53.170;6.980;2022-10-16T21:42:22;12.50;99.90
56184;DHT22;42086;53.170;6.980;2022-10-16T21:44:48;12.50;99.90
56184;DHT22;42086;53.170;6.980;2022-10-16T21:47:13;12.50;99.90
56184;DHT22;42086;53.170;6.980;2022-10-16T21:49:39;12.50;99.90
56184;DHT22;42086;53.170;6.980;2022-10-16T21:52:05;12.60;99.90
56184;DHT22;42086;53.170;6.980;2022-10-16T21:54:30;12.60;99.90
56184;DHT22;42086;53.170;6.980;2022-10-16T21:56:56;12.60;99.90
56184;DHT22;42086;53.170;6.980;2022-10-16T21:59:22;12.60;99.90
56184;DHT22;42086;53.170;6.980;2022-10-16T22:01:48;12.60;99.90
56184;DHT22;42086;53.170;6.980;2022-10-16T22:04:17;12.50;99.90
56184;DHT22;42086;53.170;6.980;2022-10-16T22:06:43;12.60;99.90
56184;DHT22;42086;53.170;6.980;2022-10-16T22:09:09;12.60;99.90
56184;DHT22;42086;53.170;6.980;2022-10-16T22:11:39;12.60;99.90
56184;DHT22;42086;53.170;6.980;2022-10-16T22:14:08;12.60;99.90
56184;DHT22;42086;53.170;6.980;2022-10-16T22:16:35;12.60;99.90
56184;DHT22;42086;53.170;6.980;2022-10-16T22:19:02;12.70;99.90
56184;DHT22;42086;53.170;6.980;2022-10-16T22:21:32;12.70;99.90
56184;DHT22;42086;53.170;6.980;2022-10-16T22:23:59;12.70;99.90
56184;DHT22;42086;53.170;6.980;2022-10-16T22:26:25;12.70;99.90
56184;DHT22;42086;53.170;6.980;2022-10-16T22:28:51;12.70;99.90
56184;DHT22;42086;53.170;6.980;2022-10-16T22:31:16;12.70;99.90
56184;DHT22;42086;53.170;6.980;2022-10-16T22:33:43;12.70;99.90
56184;DHT22;42086;53.170;6.980;2022-10-16T22:36:11;12.70;99.90
56184;DHT22;42086;53.170;6.980;2022-10-16T22:38:37;12.70;99.90
56184;DHT22;42086;53.170;6.980;2022-10-16T22:41:09;12.80;99.90
56184;DHT22;42086;53.170;6.980;2022-10-16T22:43:36;12.80;99.90
56184;DHT22;42086;53.170;6.980;2022-10-16T22:46:07;12.80;99.90
56184;DHT22;42086;53.170;6.980;2022-10-16T22:48:33;12.90;99.90
56184;DHT22;42086;53.170;6.980;2022-10-16T22:50:59;12.90;99.90
56184;DHT22;42086;53.170;6.980;2022-10-16T22:53:25;12.90;99.90
56184;DHT22;42086;53.170;6.980;2022-10-16T22:55:51;12.90;99.90
56184;DHT22;42086;53.170;6.980;2022-10-16T22:58:16;12.90;99.90
56184;DHT22;42086;53.170;6.980;2022-10-16T23:00:43;12.90;99.90
56184;DHT22;42086;53.170;6.980;2022-10-16T23:03:09;13.00;99.90
56184;DHT22;42086;53.170;6.980;2022-10-16T23:05:41;13.00;99.90
56184;DHT22;42086;53.170;6.980;2022-10-16T23:08:08;13.00;99.90
56184;DHT22;42086;53.170;6.980;2022-10-16T23:10:37;13.00;99.90
56184;DHT22;42086;53.170;6.980;2022-10-16T23:13:03;13.00;99.90
56184;DHT22;42086;53.170;6.980;2022-10-16T23:15:29;13.00;99.90
56184;DHT22;42086;53.170;6.980;2022-10-16T23:17:55;13.00;99.90
56184;DHT22;42086;53.170;6.980;2022-10-16T23:20:21;13.00;99.90
56184;DHT22;42086;53.170;6.980;2022-10-16T23:22:46;12.90;99.90
56184;DHT22;42086;53.170;6.980;2022-10-16T23:25:12;12.80;99.90
56184;DHT22;42086;53.170;6.980;2022-10-16T23:27:38;12.80;99.90
56184;DHT22;42086;53.170;6.980;2022-10-16T23:30:04;12.70;99.90
56184;DHT22;42086;53.170;6.980;2022-10-16T23:32:32;12.60;99.90
56184;DHT22;42086;53.170;6.980;2022-10-16T23:34:57;12.50;99.90
56184;DHT22;42086;53.170;6.980;2022-10-16T23:37:23;12.40;99.90
56184;DHT22;42086;53.170;6.980;2022-10-16T23:39:50;12.40;99.90
56184;DHT22;42086;53.170;6.980;2022-10-16T23:42:16;12.30;99.90
56184;DHT22;42086;53.170;6.980;2022-10-16T23:44:42;12.30;99.90
56184;DHT22;42086;53.170;6.980;2022-10-16T23:47:08;12.20;99.90
56184;DHT22;42086;53.170;6.980;2022-10-16T23:49:33;12.20;99.90
56184;DHT22;42086;53.170;6.980;2022-10-16T23:51:59;12.20;99.90
56184;DHT22;42086;53.170;6.980;2022-10-16T23:54:25;12.20;99.90
56184;DHT22;42086;53.170;6.980;2022-10-16T23:56:50;12.10;99.90
56184;DHT22;42086;53.170;6.980;2022-10-16T23:59:16;12.10;99.90
